Time;durP1;ratioP1;P1;durP2;ratioP2;P2;SDS_P1;SDS_P2;PMS_P1;PMS_P2;Temp;Humidity;BMP_temperature;BMP_pressure;BME280_temperature;BME280_humidity;BME280_pressure;Samples;Min_cycle;Max_cycle;Signal;HPM_P1;HPM_P2
2021/10/16 00:00:21;;;;;;;;;;;;;;;6.58;80.89;100181.69;5049722;28;19976;-70
2021/10/16 00:02:47;;;;;;;;;;;;;;;6.56;80.68;100188.75;5050529;28;19916;-69
2021/10/16 00:05:13;;;;;;;;;;;;;;;6.47;80.80;100183.72;5049927;28;19921;-71
2021/10/16 00:07:38;;;;;;;;;;;;;;;6.38;81.09;100184.84;5050070;28;19925;-71
2021/10/16 00:10:04;;;;;;;;;;;;;;;6.36;80.94;100181.41;5050031;28;20059;-70
2021/10/16 00:12:29;;;;;;;;;;;;;;;6.41;81.17;100188.22;5050000;28;19917;-70
2021/10/16 00:14:55;;;;;;;;;;;;;;;6.39;80.76;100186.56;5050708;28;19921;-71
2021/10/16 00:17:20;;;;;;;;;;;;;;;6.36;80.80;100186.63;5050400;28;19916;-70
2021/10/16 00:19:45;;;;;;;;;;;;;;;6.34;81.08;100191.03;5050462;28;19924;-71
2021/10/16 00:22:11;;;;;;;;;;;;;;;6.32;81.16;100184.97;5049835;28;19924;-71
2021/10/16 00:24:36;;;;;;;;;;;;;;;6.34;80.79;100188.44;5050336;28;20376;-71
2021/10/16 00:27:02;;;;;;;;;;;;;;;6.32;80.68;100185.84;5051072;28;19927;-70
2021/10/16 00:29:27;;;;;;;;;;;;;;;6.32;80.51;100185.84;5051745;28;19916;-71
2021/10/16 00:31:52;;;;;;;;;;;;;;;6.35;80.22;100190.13;5051035;28;19921;-74
2021/10/16 00:34:18;;;;;;;;;;;;;;;6.31;80.35;100188.50;5054176;28;19925;-70
2021/10/16 00:36:43;;;;;;;;;;;;;;;6.28;80.43;100189.44;5055223;28;19948;-72
2021/10/16 00:39:08;;;;;;;;;;;;;;;6.22;80.14;100187.81;5053714;28;19945;-71
2021/10/16 00:41:33;;;;;;;;;;;;;;;6.22;80.01;100189.59;5052238;28;20436;-69
2021/10/16 00:44:11;;;;;;;;;;;;;;;6.17;80.04;100181.84;5051699;28;20023;-70
2021/10/16 00:46:37;;;;;;;;;;;;;;;6.11;80.36;100189.00;5051305;28;20328;-70
2021/10/16 00:49:02;;;;;;;;;;;;;;;6.08;80.23;100184.72;5050956;28;19944;-71
2021/10/16 00:51:27;;;;;;;;;;;;;;;6.07;80.26;100190.81;5050433;28;19926;-72
2021/10/16 00:53:52;;;;;;;;;;;;;;;6.01;80.12;100178.75;5050477;28;19917;-70
2021/10/16 00:56:18;;;;;;;;;;;;;;;5.98;81.01;100185.81;5032249;28;19917;-71
2021/10/16 00:58:43;;;;;;;;;;;;;;;5.98;80.86;100181.47;5050133;28;19924;-70
2021/10/16 01:01:08;;;;;;;;;;;;;;;5.93;80.47;100177.19;5016240;28;19920;-70
2021/10/16 01:03:34;;;;;;;;;;;;;;;5.86;80.73;100188.69;5049884;28;19921;-72
2021/10/16 01:05:59;;;;;;;;;;;;;;;5.84;81.03;100180.03;5029111;28;19987;-70
2021/10/16 01:08:24;;;;;;;;;;;;;;;5.82;80.49;100180.91;5049674;28;19917;-70
2021/10/16 01:10:49;;;;;;;;;;;;;;;5.79;80.38;100183.59;5048761;28;20000;-70
2021/10/16 01:13:15;;;;;;;;;;;;;;;5.77;80.71;100182.78;5049543;28;20519;-72
2021/10/16 01:15:41;;;;;;;;;;;;;;;5.76;80.42;100177.59;5048945;28;20308;-70
2021/10/16 01:18:07;;;;;;;;;;;;;;;5.73;80.98;100183.72;5049513;28;19923;-70
2021/10/16 01:20:33;;;;;;;;;;;;;;;5.73;80.62;100182.88;5049340;28;20312;-70
2021/10/16 01:22:59;;;;;;;;;;;;;;;5.68;80.26;100172.50;5031848;28;19984;-70
2021/10/16 01:25:24;;;;;;;;;;;;;;;5.60;80.87;100170.09;5051509;28;19939;-71
2021/10/16 01:27:50;;;;;;;;;;;;;;;5.60;80.63;100171.84;5037549;28;19917;-72
2021/10/16 01:30:17;;;;;;;;;;;;;;;5.53;81.01;100171.09;5040023;28;19921;-67
2021/10/16 01:32:43;;;;;;;;;;;;;;;5.47;80.83;100167.78;5054624;28;19917;-68
2021/10/16 01:35:09;;;;;;;;;;;;;;;5.48;80.54;100162.50;5052471;28;19924;-69
2021/10/16 01:37:37;;;;;;;;;;;;;;;5.46;80.90;100164.28;5053818;28;19920;-70
2021/10/16 01:40:03;;;;;;;;;;;;;;;5.44;80.75;100160.00;5054303;28;19917;-70
2021/10/16 01:42:28;;;;;;;;;;;;;;;5.47;80.48;100162.56;5053547;28;19928;-70
2021/10/16 01:44:53;;;;;;;;;;;;;;;5.49;80.48;100155.53;5050314;28;20322;-69
2021/10/16 01:47:18;;;;;;;;;;;;;;;5.47;80.26;100159.94;5049239;28;19924;-70
2021/10/16 01:49:44;;;;;;;;;;;;;;;5.47;80.52;100158.19;5049195;28;19963;-70
2021/10/16 01:52:09;;;;;;;;;;;;;;;5.41;80.72;100152.22;5048271;28;19916;-69
2021/10/16 01:54:34;;;;;;;;;;;;;;;5.39;80.51;100154.91;5049283;28;19916;-69
2021/10/16 01:56:59;;;;;;;;;;;;;;;5.32;80.64;100153.31;5031148;28;19975;-70
2021/10/16 01:59:26;;;;;;;;;;;;;;;5.29;80.59;100154.22;5048783;28;19932;-71
2021/10/16 02:01:52;;;;;;;;;;;;;;;5.33;80.15;100157.63;5047638;28;20016;-70
2021/10/16 02:04:17;;;;;;;;;;;;;;;5.32;79.94;100156.78;5014311;28;19921;-69
2021/10/16 02:06:43;;;;;;;;;;;;;;;5.28;80.20;100155.09;5049019;28;20272;-68
2021/10/16 02:09:09;;;;;;;;;;;;;;;5.24;80.17;100152.59;5048877;28;19917;-69
2021/10/16 02:11:34;;;;;;;;;;;;;;;5.22;80.76;100154.38;5048421;28;19921;-68
2021/10/16 02:14:00;;;;;;;;;;;;;;;5.24;80.42;100157.81;5048793;28;19916;-71
2021/10/16 02:16:25;;;;;;;;;;;;;;;5.24;80.16;100160.44;5048580;28;20013;-69
2021/10/16 02:18:50;;;;;;;;;;;;;;;5.20;80.10;100154.44;5048289;28;19924;-69
2021/10/16 02:21:15;;;;;;;;;;;;;;;5.22;80.17;100157.88;5048675;28;20008;-71
2021/10/16 02:23:41;;;;;;;;;;;;;;;5.22;79.65;100155.25;5052430;28;19936;-69
2021/10/16 02:26:06;;;;;;;;;;;;;;;5.17;79.37;100159.72;5057043;28;20008;-71
2021/10/16 02:28:31;;;;;;;;;;;;;;;5.11;80.22;100160.69;5052505;28;19916;-71
2021/10/16 02:30:56;;;;;;;;;;;;;;;5.02;80.38;100160.00;5052050;28;19924;-69
2021/10/16 02:33:22;;;;;;;;;;;;;;;5.00;80.49;100160.06;5052444;28;19960;-70
2021/10/16 02:35:47;;;;;;;;;;;;;;;4.95;80.44;100162.78;5052378;28;20016;-69
2021/10/16 02:38:12;;;;;;;;;;;;;;;4.92;80.67;100165.44;5052374;28;19960;-69
2021/10/16 02:40:37;;;;;;;;;;;;;;;4.92;80.47;100156.72;5051645;28;19971;-71
2021/10/16 02:43:04;;;;;;;;;;;;;;;4.89;80.66;100159.41;5052051;28;19923;-69
2021/10/16 02:45:29;;;;;;;;;;;;;;;4.85;80.38;100158.63;5052336;28;19924;-69
2021/10/16 02:47:55;;;;;;;;;;;;;;;4.84;81.14;100156.03;5051478;28;19917;-69
2021/10/16 02:50:20;;;;;;;;;;;;;;;4.88;80.25;100157.69;5051794;28;19917;-69
2021/10/16 02:52:45;;;;;;;;;;;;;;;4.89;80.05;100160.25;5034381;28;19917;-70
2021/10/16 02:55:10;;;;;;;;;;;;;;;4.88;80.23;100157.69;5052357;28;19917;-70
2021/10/16 02:57:36;;;;;;;;;;;;;;;4.86;79.80;100157.72;5052201;28;19917;-70
2021/10/16 03:00:01;;;;;;;;;;;;;;;4.86;80.03;100155.09;5051443;28;19917;-72
2021/10/16 03:02:27;;;;;;;;;;;;;;;4.83;80.05;100154.31;5049029;28;20025;-70
2021/10/16 03:04:52;;;;;;;;;;;;;;;4.77;79.89;100160.50;5033592;28;19924;-70
2021/10/16 03:07:17;;;;;;;;;;;;;;;4.74;80.70;100157.97;5052110;28;19962;-71
2021/10/16 03:09:42;;;;;;;;;;;;;;;4.72;80.46;100164.97;5051707;28;19917;-70
2021/10/16 03:12:08;;;;;;;;;;;;;;;4.71;80.21;100156.28;5051243;28;19928;-70
2021/10/16 03:14:33;;;;;;;;;;;;;;;4.73;80.14;100164.94;5051916;28;19925;-71
2021/10/16 03:16:58;;;;;;;;;;;;;;;4.72;79.61;100171.03;5033446;28;20705;-70
2021/10/16 03:19:23;;;;;;;;;;;;;;;4.72;79.90;100175.41;5051597;28;20288;-69
2021/10/16 03:21:49;;;;;;;;;;;;;;;4.70;79.78;100175.47;5051242;28;20390;-70
2021/10/16 03:24:14;;;;;;;;;;;;;;;4.69;79.65;100173.72;5051767;28;19917;-70
2021/10/16 03:26:39;;;;;;;;;;;;;;;4.68;79.46;100166.78;5033662;28;19967;-71
2021/10/16 03:29:04;;;;;;;;;;;;;;;4.69;79.70;100165.88;5051906;28;19920;-70
2021/10/16 03:31:30;;;;;;;;;;;;;;;4.67;79.32;100166.81;5050599;28;19940;-69
2021/10/16 03:33:55;;;;;;;;;;;;;;;4.66;79.72;100163.34;5051444;28;20497;-72
2021/10/16 03:36:20;;;;;;;;;;;;;;;4.61;79.91;100170.41;5033502;28;19921;-72
2021/10/16 03:38:45;;;;;;;;;;;;;;;4.58;79.88;100172.19;5051408;28;19917;-70
2021/10/16 03:41:11;;;;;;;;;;;;;;;4.57;79.68;100173.94;5050479;28;19921;-71
2021/10/16 03:43:36;;;;;;;;;;;;;;;4.56;80.24;100166.16;5051683;28;19916;-69
2021/10/16 03:46:01;;;;;;;;;;;;;;;4.50;79.90;100170.59;5051297;28;19917;-69
2021/10/16 03:48:26;;;;;;;;;;;;;;;4.49;80.23;100168.88;5050965;28;19943;-69
2021/10/16 03:50:52;;;;;;;;;;;;;;;4.43;79.83;100169.00;5050847;28;19967;-73
2021/10/16 03:53:17;;;;;;;;;;;;;;;4.41;80.18;100170.75;5033648;28;19921;-69
2021/10/16 03:55:42;;;;;;;;;;;;;;;4.39;80.59;100172.53;5051205;28;19952;-70
2021/10/16 03:58:08;;;;;;;;;;;;;;;4.42;79.86;100172.47;5051528;28;19956;-69
2021/10/16 04:00:33;;;;;;;;;;;;;;;4.40;80.13;100174.25;5049859;28;19917;-70
2021/10/16 04:03:03;;;;;;;;;;;;;;;4.40;80.23;100174.25;5050837;28;19979;-70
2021/10/16 04:05:29;;;;;;;;;;;;;;;4.43;79.97;100170.72;5051021;28;20014;-70
2021/10/16 04:07:54;;;;;;;;;;;;;;;4.44;79.52;100180.28;5033109;28;20364;-70
2021/10/16 04:10:19;;;;;;;;;;;;;;;4.41;79.77;100175.97;5031928;28;19963;-69
2021/10/16 04:12:44;;;;;;;;;;;;;;;4.40;79.02;100176.84;5050868;28;20004;-70
2021/10/16 04:15:10;;;;;;;;;;;;;;;4.39;79.40;100177.75;5032611;28;19921;-72
2021/10/16 04:17:35;;;;;;;;;;;;;;;4.39;79.34;100182.13;5051383;28;19921;-71
2021/10/16 04:20:00;;;;;;;;;;;;;;;4.38;79.21;100180.38;5050462;28;20321;-70
2021/10/16 04:22:25;;;;;;;;;;;;;;;4.33;79.18;100174.38;5051797;28;19920;-70
2021/10/16 04:24:51;;;;;;;;;;;;;;;4.32;79.15;100181.34;5051480;28;19916;-71
2021/10/16 04:27:17;;;;;;;;;;;;;;;4.29;79.20;100171.84;5050205;28;20407;-70
2021/10/16 04:29:42;;;;;;;;;;;;;;;4.30;79.30;100178.75;5050515;28;19917;-72
2021/10/16 04:32:07;;;;;;;;;;;;;;;4.29;79.36;100178.81;5050268;28;20003;-71
2021/10/16 04:34:33;;;;;;;;;;;;;;;4.30;79.59;100172.69;5050323;28;19916;-71
2021/10/16 04:36:58;;;;;;;;;;;;;;;4.27;79.02;100176.22;5050135;28;20301;-70
2021/10/16 04:39:26;;;;;;;;;;;;;;;4.23;79.23;100174.56;5050400;28;19924;-71
2021/10/16 04:41:51;;;;;;;;;;;;;;;4.26;79.53;100178.88;5049328;28;19921;-71
2021/10/16 04:44:17;;;;;;;;;;;;;;;4.25;79.53;100174.53;5050002;28;20668;-70
2021/10/16 04:46:42;;;;;;;;;;;;;;;4.18;79.16;100176.38;5049780;28;20158;-70
2021/10/16 04:49:07;;;;;;;;;;;;;;;4.18;79.65;100181.59;5050177;28;19986;-70
2021/10/16 04:51:32;;;;;;;;;;;;;;;4.19;79.65;100180.72;5048549;28;20000;-72
2021/10/16 04:53:58;;;;;;;;;;;;;;;4.23;80.00;100179.78;5049971;28;19921;-70
2021/10/16 04:56:23;;;;;;;;;;;;;;;4.25;80.04;100179.75;5049309;28;19963;-71
2021/10/16 04:58:48;;;;;;;;;;;;;;;4.25;79.72;100182.34;5031678;28;19920;-71
2021/10/16 05:01:13;;;;;;;;;;;;;;;4.24;79.62;100186.72;5030831;28;19963;-70
2021/10/16 05:03:39;;;;;;;;;;;;;;;4.24;79.09;100180.63;5050161;28;19936;-71
2021/10/16 05:06:04;;;;;;;;;;;;;;;4.22;79.42;100180.66;5031582;28;20380;-70
2021/10/16 05:08:30;;;;;;;;;;;;;;;4.15;79.69;100179.03;5049540;28;19925;-70
2021/10/16 05:10:56;;;;;;;;;;;;;;;4.15;79.62;100183.41;5046700;28;19924;-69
2021/10/16 05:13:21;;;;;;;;;;;;;;;4.14;79.75;100187.75;5049058;28;20018;-70
2021/10/16 05:15:46;;;;;;;;;;;;;;;4.12;79.53;100183.47;5049486;28;19928;-70
2021/10/16 05:18:11;;;;;;;;;;;;;;;4.10;79.59;100183.47;5049546;28;20131;-70
2021/10/16 05:20:37;;;;;;;;;;;;;;;4.04;79.81;100180.97;5040063;28;19917;-68
2021/10/16 05:23:02;;;;;;;;;;;;;;;4.00;79.81;100180.16;5022428;28;19921;-71
2021/10/16 05:25:27;;;;;;;;;;;;;;;4.00;79.91;100182.75;5031647;28;19973;-71
2021/10/16 05:27:52;;;;;;;;;;;;;;;4.01;79.88;100178.38;5022950;28;20454;-71
2021/10/16 05:30:18;;;;;;;;;;;;;;;4.00;79.94;100177.53;5016065;28;19919;-71
2021/10/16 05:32:43;;;;;;;;;;;;;;;4.04;79.87;100178.38;5024129;28;19943;-69
2021/10/16 05:35:09;;;;;;;;;;;;;;;4.07;79.93;100183.53;5033106;28;19924;-71
2021/10/16 05:37:34;;;;;;;;;;;;;;;4.08;79.54;100183.47;5040979;28;20007;-70
2021/10/16 05:39:59;;;;;;;;;;;;;;;4.08;79.60;100180.00;5030526;28;19934;-69
2021/10/16 05:42:25;;;;;;;;;;;;;;;4.09;79.62;100185.22;5048650;28;19956;-71
2021/10/16 05:44:50;;;;;;;;;;;;;;;4.08;79.48;100185.22;5048479;28;20303;-69
2021/10/16 05:47:16;;;;;;;;;;;;;;;4.07;79.97;100189.59;5048640;28;19929;-71
2021/10/16 05:49:41;;;;;;;;;;;;;;;4.09;79.76;100190.44;5048415;28;20399;-72
2021/10/16 05:52:06;;;;;;;;;;;;;;;4.13;79.64;100190.38;5048479;28;19948;-71
2021/10/16 05:54:32;;;;;;;;;;;;;;;4.11;79.95;100194.75;5048916;28;19924;-70
2021/10/16 05:56:57;;;;;;;;;;;;;;;4.00;79.80;100189.72;5048302;28;20666;-71
2021/10/16 05:59:22;;;;;;;;;;;;;;;4.03;80.08;100187.91;5031322;28;19921;-70
2021/10/16 06:01:48;;;;;;;;;;;;;;;4.06;80.08;100190.50;5030729;28;20299;-70
2021/10/16 06:04:13;;;;;;;;;;;;;;;4.07;80.26;100187.00;5053196;28;19917;-70
2021/10/16 06:06:38;;;;;;;;;;;;;;;4.09;79.52;100185.22;5053275;28;19927;-71
2021/10/16 06:09:03;;;;;;;;;;;;;;;4.06;79.93;100184.38;5018339;28;19917;-70
2021/10/16 06:11:29;;;;;;;;;;;;;;;4.08;79.92;100187.84;5051663;28;19917;-71
2021/10/16 06:13:54;;;;;;;;;;;;;;;4.09;79.77;100187.81;5052611;28;20019;-72
2021/10/16 06:16:19;;;;;;;;;;;;;;;4.11;79.59;100185.22;5052536;28;20008;-71
2021/10/16 06:18:45;;;;;;;;;;;;;;;4.13;79.77;100187.78;5034573;28;19924;-72
2021/10/16 06:21:10;;;;;;;;;;;;;;;4.12;79.66;100192.13;5034086;28;20008;-71
2021/10/16 06:23:36;;;;;;;;;;;;;;;4.08;80.06;100196.53;5052505;28;19931;-70
2021/10/16 06:26:02;;;;;;;;;;;;;;;4.08;79.68;100191.31;5051890;28;19917;-70
2021/10/16 06:28:27;;;;;;;;;;;;;;;4.13;79.49;100196.44;5052845;28;19917;-70
2021/10/16 06:30:52;;;;;;;;;;;;;;;4.11;79.59;100200.88;5033547;28;20211;-71
2021/10/16 06:33:19;;;;;;;;;;;;;;;4.09;80.23;100189.59;5052466;28;20003;-71
2021/10/16 06:35:44;;;;;;;;;;;;;;;4.11;79.99;100199.97;5053457;28;20015;-71
2021/10/16 06:38:09;;;;;;;;;;;;;;;4.14;79.81;100203.41;5052757;28;20011;-71
2021/10/16 06:40:34;;;;;;;;;;;;;;;4.21;80.26;100204.16;5051828;28;20059;-70
2021/10/16 06:43:00;;;;;;;;;;;;;;;4.24;79.83;100204.97;5051887;28;19940;-71
2021/10/16 06:45:25;;;;;;;;;;;;;;;4.29;79.96;100203.16;5052475;28;20361;-70
2021/10/16 06:47:50;;;;;;;;;;;;;;;4.35;79.49;100207.41;5051895;28;19916;-71
2021/10/16 06:50:16;;;;;;;;;;;;;;;4.38;79.32;100209.09;5051596;28;19924;-68
2021/10/16 06:52:41;;;;;;;;;;;;;;;4.37;78.96;100202.16;5051631;28;20458;-70
2021/10/16 06:55:06;;;;;;;;;;;;;;;4.37;79.30;100215.22;5045342;28;19921;-71
2021/10/16 06:57:31;;;;;;;;;;;;;;;4.42;79.79;100213.38;5049447;28;21199;-70
2021/10/16 06:59:57;;;;;;;;;;;;;;;4.46;79.22;100217.69;5046032;28;20408;-71
2021/10/16 07:02:22;;;;;;;;;;;;;;;4.48;79.19;100221.13;5026128;28;20300;-69
2021/10/16 07:04:47;;;;;;;;;;;;;;;4.52;79.75;100215.78;5048193;28;19921;-71
2021/10/16 07:07:12;;;;;;;;;;;;;;;4.58;79.94;100224.41;5049106;28;20371;-70
2021/10/16 07:09:38;;;;;;;;;;;;;;;4.68;79.75;100212.94;5050783;28;20400;-71
2021/10/16 07:12:03;;;;;;;;;;;;;;;4.80;80.00;100222.28;5049453;28;19932;-72
2021/10/16 07:14:29;;;;;;;;;;;;;;;4.88;79.26;100216.03;5031393;28;19924;-70
2021/10/16 07:16:54;;;;;;;;;;;;;;;4.97;79.86;100220.19;5054033;28;19921;-72
2021/10/16 07:19:20;;;;;;;;;;;;;;;5.07;79.65;100220.88;5051054;28;19960;-70
2021/10/16 07:21:45;;;;;;;;;;;;;;;5.14;79.30;100225.09;5032436;28;19920;-73
2021/10/16 07:24:11;;;;;;;;;;;;;;;5.22;79.10;100228.44;5050969;28;20338;-74
2021/10/16 07:26:38;;;;;;;;;;;;;;;5.31;79.44;100230.00;5050651;28;20380;-71
2021/10/16 07:29:03;;;;;;;;;;;;;;;5.42;79.68;100233.25;5050956;28;19916;-70
2021/10/16 07:31:29;;;;;;;;;;;;;;;5.53;80.06;100227.78;5032428;28;19966;-71
2021/10/16 07:33:56;;;;;;;;;;;;;;;5.65;79.52;100229.28;5050924;28;19928;-72
2021/10/16 07:36:21;;;;;;;;;;;;;;;5.75;79.40;100236.03;5050321;28;19917;-70
2021/10/16 07:38:46;;;;;;;;;;;;;;;5.87;79.56;100235.75;5050778;28;19923;-71
2021/10/16 07:41:12;;;;;;;;;;;;;;;5.98;79.29;100235.53;5050656;28;19928;-72
2021/10/16 07:43:37;;;;;;;;;;;;;;;6.10;79.41;100227.38;5050362;28;20399;-72
2021/10/16 07:46:02;;;;;;;;;;;;;;;6.23;79.19;100231.44;5050895;28;20299;-72
2021/10/16 07:48:27;;;;;;;;;;;;;;;6.36;78.65;100234.63;5050273;28;19917;-71
2021/10/16 07:50:54;;;;;;;;;;;;;;;6.50;78.43;100236.03;5049839;28;19917;-72
2021/10/16 07:53:19;;;;;;;;;;;;;;;6.62;78.23;100231.34;5049199;28;19940;-70
2021/10/16 07:55:44;;;;;;;;;;;;;;;6.77;77.85;100231.84;5051252;28;19921;-71
2021/10/16 07:58:09;;;;;;;;;;;;;;;6.89;77.34;100231.50;5051003;28;19961;-72
2021/10/16 08:00:35;;;;;;;;;;;;;;;7.03;77.25;100228.53;5049367;28;20280;-72
2021/10/16 08:03:00;;;;;;;;;;;;;;;7.16;76.80;100229.03;5050268;28;20643;-70
2021/10/16 08:05:25;;;;;;;;;;;;;;;7.31;76.63;100231.25;5051376;28;20311;-72
2021/10/16 08:07:51;;;;;;;;;;;;;;;7.46;76.42;100227.31;5050538;28;19963;-73
2021/10/16 08:10:16;;;;;;;;;;;;;;;7.58;76.87;100231.31;5034815;28;19917;-72
2021/10/16 08:12:41;;;;;;;;;;;;;;;7.76;76.50;100225.53;5053675;28;19925;-73
2021/10/16 08:15:07;;;;;;;;;;;;;;;7.90;75.94;100225.09;5036685;28;19974;-71
2021/10/16 08:17:32;;;;;;;;;;;;;;;8.09;75.52;100226.22;5067766;28;19921;-69
2021/10/16 08:19:58;;;;;;;;;;;;;;;8.24;74.57;100221.38;5058495;28;19958;-73
2021/10/16 08:22:23;;;;;;;;;;;;;;;8.40;73.87;100227.91;5032477;28;19932;-72
2021/10/16 08:24:48;;;;;;;;;;;;;;;8.58;74.02;100223.78;5031683;28;19917;-72
2021/10/16 08:27:14;;;;;;;;;;;;;;;8.77;72.79;100221.41;5051028;28;19917;-69
2021/10/16 08:29:39;;;;;;;;;;;;;;;8.94;72.22;100219.03;5050468;28;19917;-70
2021/10/16 08:32:04;;;;;;;;;;;;;;;9.11;70.81;100222.84;5030525;28;20372;-70
2021/10/16 08:34:30;;;;;;;;;;;;;;;9.28;70.93;100219.56;5048902;28;20266;-70
2021/10/16 08:36:55;;;;;;;;;;;;;;;9.44;70.37;100215.47;5049891;28;19921;-71
2021/10/16 08:39:23;;;;;;;;;;;;;;;9.55;69.92;100218.56;5015022;28;20011;-70
2021/10/16 08:41:48;;;;;;;;;;;;;;;9.70;69.96;100218.84;5046194;28;19928;-71
2021/10/16 08:44:14;;;;;;;;;;;;;;;10.01;68.77;100219.38;5031452;28;20288;-70
2021/10/16 08:46:41;;;;;;;;;;;;;;;10.56;66.92;100218.94;5049421;28;19921;-72
2021/10/16 08:49:06;;;;;;;;;;;;;;;11.16;65.74;100209.25;5049274;28;19956;-69
2021/10/16 08:51:31;;;;;;;;;;;;;;;11.93;64.24;100204.88;5030725;28;20407;-72
2021/10/16 08:53:56;;;;;;;;;;;;;;;13.24;60.01;100209.69;5048711;28;20004;-71
2021/10/16 08:56:22;;;;;;;;;;;;;;;14.33;55.91;100204.53;5049203;28;20012;-71
2021/10/16 08:58:48;;;;;;;;;;;;;;;15.23;53.24;100198.28;5043804;28;19925;-72
2021/10/16 09:01:13;;;;;;;;;;;;;;;16.16;48.86;100195.94;5027683;28;19943;-72
2021/10/16 09:03:41;;;;;;;;;;;;;;;16.85;44.91;100185.97;5031500;28;19933;-72
2021/10/16 09:06:11;;;;;;;;;;;;;;;17.47;45.34;100198.50;5046176;28;20342;-71
2021/10/16 09:08:43;;;;;;;;;;;;;;;17.92;43.58;100192.69;5033407;28;19924;-72
2021/10/16 09:11:14;;;;;;;;;;;;;;;18.47;40.72;100191.22;5048099;28;20213;-72
2021/10/16 09:13:42;;;;;;;;;;;;;;;18.92;39.53;100188.69;5031586;28;19936;-71
2021/10/16 09:16:17;;;;;;;;;;;;;;;19.14;39.19;100184.34;5031340;28;19927;-73
2021/10/16 09:18:49;;;;;;;;;;;;;;;19.75;37.63;100186.66;5048039;28;20319;-72
2021/10/16 09:21:15;;;;;;;;;;;;;;;20.21;37.38;100182.88;5023884;28;19925;-73
2021/10/16 09:23:40;;;;;;;;;;;;;;;20.26;35.63;100178.00;5038226;28;19929;-72
2021/10/16 09:26:07;;;;;;;;;;;;;;;20.22;34.77;100176.53;5032263;28;20297;-73
2021/10/16 09:28:33;;;;;;;;;;;;;;;19.81;35.25;100173.59;5043514;28;20004;-72
2021/10/16 09:31:08;;;;;;;;;;;;;;;20.26;35.56;100176.16;5024509;28;20484;-72
2021/10/16 09:33:46;;;;;;;;;;;;;;;20.84;34.19;100178.44;5043117;28;19924;-71
2021/10/16 09:36:24;;;;;;;;;;;;;;;21.00;33.97;100175.28;5025487;28;19948;-72
2021/10/16 09:38:49;;;;;;;;;;;;;;;21.38;33.08;100181.81;5043210;28;19936;-72
2021/10/16 09:41:33;;;;;;;;;;;;;;;21.55;32.23;100183.03;5005619;28;19921;-73
2021/10/16 09:43:59;;;;;;;;;;;;;;;21.79;32.49;100183.50;5023533;28;20285;-71
2021/10/16 09:46:25;;;;;;;;;;;;;;;21.96;31.37;100181.16;5024083;28;19927;-71
2021/10/16 09:48:50;;;;;;;;;;;;;;;21.77;30.62;100184.63;5006263;28;20007;-72
2021/10/16 09:51:20;;;;;;;;;;;;;;;21.82;30.72;100179.72;5021646;28;20024;-72
2021/10/16 09:53:46;;;;;;;;;;;;;;;21.76;30.70;100177.59;5023444;28;19921;-72
2021/10/16 09:56:12;;;;;;;;;;;;;;;21.47;30.63;100178.34;5022930;28;19921;-72
2021/10/16 09:58:38;;;;;;;;;;;;;;;21.35;31.09;100179.41;5005163;28;19921;-73
2021/10/16 10:01:03;;;;;;;;;;;;;;;20.91;29.85;100184.97;5022544;28;19925;-71
2021/10/16 10:03:30;;;;;;;;;;;;;;;20.56;30.75;100178.13;5022320;28;19928;-70
2021/10/16 10:05:56;;;;;;;;;;;;;;;20.83;30.19;100178.56;5008507;28;19928;-71
2021/10/16 10:08:21;;;;;;;;;;;;;;;21.14;30.10;100184.78;5023824;28;20012;-70
2021/10/16 10:10:47;;;;;;;;;;;;;;;21.14;30.05;100188.34;5045239;28;19956;-70
2021/10/16 10:13:13;;;;;;;;;;;;;;;21.67;29.22;100189.13;5045072;28;20004;-70
2021/10/16 10:15:39;;;;;;;;;;;;;;;21.52;29.63;100191.34;5023145;28;20376;-71
2021/10/16 10:20:50;;;;;;;;;;;;;;;20.65;29.59;100187.22;5045340;28;19928;-70
2021/10/16 10:23:19;;;;;;;;;;;;;;;20.15;30.61;100192.25;5038612;28;19921;-71
2021/10/16 10:25:45;;;;;;;;;;;;;;;19.28;32.32;100189.47;5028703;28;19960;-71
2021/10/16 10:28:10;;;;;;;;;;;;;;;18.90;34.03;100185.28;5044260;28;19964;-71
2021/10/16 10:30:41;;;;;;;;;;;;;;;18.48;35.45;100184.91;5045011;28;20333;-70
2021/10/16 10:33:15;;;;;;;;;;;;;;;17.88;35.87;100189.38;5045568;28;19995;-71
2021/10/16 10:36:00;;;;;;;;;;;;;;;17.28;37.39;100195.47;5044927;28;19975;-72
2021/10/16 10:38:29;;;;;;;;;;;;;;;16.95;37.51;100184.38;5023221;28;19975;-71
2021/10/16 10:40:54;;;;;;;;;;;;;;;16.51;38.43;100187.41;5044339;28;20384;-73
2021/10/16 10:43:39;;;;;;;;;;;;;;;16.28;38.59;100186.28;5045490;28;19925;-71
2021/10/16 10:46:11;;;;;;;;;;;;;;;15.99;39.17;100186.38;5027166;28;20335;-72
2021/10/16 10:48:43;;;;;;;;;;;;;;;15.93;39.27;100184.16;5043570;28;19921;-72
2021/10/16 10:51:09;;;;;;;;;;;;;;;15.80;40.71;100186.75;5047696;28;19948;-73
2021/10/16 10:53:36;;;;;;;;;;;;;;;15.70;39.70;100177.63;5030854;28;20379;-73
2021/10/16 10:56:14;;;;;;;;;;;;;;;15.63;39.67;100177.16;5046243;28;20013;-73
2021/10/16 10:59:00;;;;;;;;;;;;;;;15.55;40.47;100175.94;5048172;28;19924;-74
2021/10/16 11:01:41;;;;;;;;;;;;;;;15.53;40.49;100172.53;5047572;28;19928;-74
2021/10/16 11:04:06;;;;;;;;;;;;;;;15.52;41.14;100171.66;5048576;28;20004;-73
2021/10/16 11:06:31;;;;;;;;;;;;;;;15.52;40.56;100166.34;5048914;28;20011;-73
2021/10/16 11:09:12;;;;;;;;;;;;;;;15.48;39.95;100174.63;5048829;28;20602;-72
2021/10/16 11:11:45;;;;;;;;;;;;;;;15.05;41.68;100172.00;5048268;28;20399;-74
2021/10/16 11:14:10;;;;;;;;;;;;;;;15.26;41.89;100165.38;5047967;28;20445;-73
2021/10/16 11:16:35;;;;;;;;;;;;;;;15.41;41.35;100155.56;5037912;28;19921;-72
2021/10/16 11:19:00;;;;;;;;;;;;;;;15.55;40.08;100157.34;5028883;28;19925;-73
2021/10/16 11:21:25;;;;;;;;;;;;;;;15.58;39.32;100152.69;5027434;28;19974;-73
2021/10/16 11:23:51;;;;;;;;;;;;;;;15.53;39.65;100145.94;5048840;28;19970;-72
2021/10/16 11:26:16;;;;;;;;;;;;;;;15.25;39.25;100147.69;5042028;28;20036;-74
2021/10/16 11:28:43;;;;;;;;;;;;;;;14.98;39.99;100152.94;5047546;28;20007;-72
2021/10/16 11:31:11;;;;;;;;;;;;;;;14.72;41.13;100150.06;5047608;28;20643;-73
2021/10/16 11:33:40;;;;;;;;;;;;;;;14.60;42.03;100145.50;5030601;28;19921;-71
2021/10/16 11:36:06;;;;;;;;;;;;;;;14.55;42.03;100145.78;5030805;28;19921;-72
2021/10/16 11:38:32;;;;;;;;;;;;;;;14.60;43.95;100143.72;5029844;28;20655;-75
2021/10/16 11:40:58;;;;;;;;;;;;;;;14.65;44.61;100139.94;5028964;28;19928;-71
2021/10/16 11:43:25;;;;;;;;;;;;;;;14.74;44.54;100134.91;5047902;28;19943;-73
2021/10/16 11:45:52;;;;;;;;;;;;;;;14.80;45.43;100133.69;5048300;28;19990;-74
2021/10/16 11:48:19;;;;;;;;;;;;;;;14.66;45.65;100136.31;5030551;28;20372;-74
2021/10/16 11:50:45;;;;;;;;;;;;;;;14.64;45.98;100139.06;5047087;28;19925;-71
2021/10/16 11:53:20;;;;;;;;;;;;;;;14.66;46.66;100134.50;5047442;28;20295;-73
2021/10/16 11:55:47;;;;;;;;;;;;;;;14.45;48.46;100135.75;5046742;28;20643;-74
2021/10/16 11:58:15;;;;;;;;;;;;;;;14.13;49.60;100135.88;5028923;28;19935;-73
2021/10/16 12:00:41;;;;;;;;;;;;;;;14.03;48.59;100145.28;5026453;28;19966;-73
2021/10/16 12:03:13;;;;;;;;;;;;;;;13.93;48.75;100142.31;5047505;28;19916;-74
2021/10/16 12:05:38;;;;;;;;;;;;;;;13.75;50.24;100139.78;5027639;28;19921;-72
2021/10/16 12:08:10;;;;;;;;;;;;;;;13.69;50.48;100129.53;5010018;28;19943;-74
2021/10/16 12:10:37;;;;;;;;;;;;;;;13.75;50.13;100133.63;5025404;28;19929;-73
2021/10/16 12:13:09;;;;;;;;;;;;;;;13.76;49.96;100130.06;5007621;28;19971;-73
2021/10/16 12:15:38;;;;;;;;;;;;;;;13.76;50.60;100135.34;5030619;28;19929;-73
2021/10/16 12:18:04;;;;;;;;;;;;;;;13.84;50.62;100133.13;5047028;28;19925;-74
2021/10/16 12:20:29;;;;;;;;;;;;;;;13.75;50.97;100130.97;5047049;28;20380;-72
2021/10/16 12:22:58;;;;;;;;;;;;;;;13.75;51.63;100131.84;5047052;28;19970;-72
2021/10/16 12:25:24;;;;;;;;;;;;;;;13.65;52.12;100143.03;5038721;28;19921;-73
2021/10/16 12:27:59;;;;;;;;;;;;;;;13.61;51.88;100137.09;5028162;28;19921;-74
2021/10/16 12:30:25;;;;;;;;;;;;;;;13.66;51.99;100128.84;5027140;28;19940;-72
2021/10/16 12:33:07;;;;;;;;;;;;;;;13.64;52.17;100138.69;5010177;28;19925;-73
2021/10/16 12:35:33;;;;;;;;;;;;;;;13.55;52.45;100136.56;5028406;28;20292;-72
2021/10/16 12:37:59;;;;;;;;;;;;;;;13.52;51.77;100127.00;5044536;28;19975;-76
2021/10/16 12:40:34;;;;;;;;;;;;;;;13.49;51.40;100128.03;5008778;28;20020;-72